Terminal Aerodrome Forecast
Issued by NWS

Home | Current Version | Previous Version | Text Only | Print | Product List | Glossary On
Versions: 1 2 3 4 5 6 7 8 9 10 11 12 13 14 15 16 17 18
510
FTUS42 TJSJ 181720
TAFIST
TAF
TIST 181720Z 1818/1918 07012G20KT P6SM VCSH SCT030 SCT060
     FM182300 05009KT P6SM VCSH FEW022 SCT050
     FM191300 07012G19KT P6SM SCT025=

USA.gov is the U.S. government's official web portal to all federal, state and local government web resources and services.